Time;durP1;ratioP1;P1;durP2;ratioP2;P2;SDS_P1;SDS_P2;PMS_P1;PMS_P2;Temp;Humidity;BMP_temperature;BMP_pressure;BME280_temperature;BME280_humidity;BME280_pressure;Samples;Min_cycle;Max_cycle;Signal;HPM_P1;HPM_P2
2023/08/06 00:00:26;;;;;;;4.22;2.40;;;;;;;17.19;100.00;100257.69;5249923;28;20040;-69
2023/08/06 00:02:57;;;;;;;4.05;2.42;;;;;;;17.15;100.00;100264.34;5252784;28;20032;-70
2023/08/06 00:05:28;;;;;;;6.07;2.55;;;;;;;17.20;100.00;100262.00;5251943;28;20131;-70
2023/08/06 00:08:00;;;;;;;4.68;2.10;;;;;;;17.23;100.00;100260.78;5248717;28;20033;-69
2023/08/06 00:10:31;;;;;;;3.25;2.13;;;;;;;17.26;100.00;100263.88;5247977;28;20033;-69
2023/08/06 00:13:02;;;;;;;2.83;1.95;;;;;;;17.27;100.00;100264.69;5250844;28;20068;-69
2023/08/06 00:15:33;;;;;;;3.83;2.60;;;;;;;17.30;100.00;100264.31;5250344;28;20032;-69
2023/08/06 00:18:05;;;;;;;3.65;2.20;;;;;;;17.31;100.00;100259.84;5248168;28;20025;-69
2023/08/06 00:20:38;;;;;;;4.82;2.63;;;;;;;17.36;100.00;100255.63;5249078;28;20063;-69
2023/08/06 00:23:10;;;;;;;4.90;2.35;;;;;;;17.28;100.00;100245.16;5250926;28;20398;-69
2023/08/06 00:25:41;;;;;;;3.83;2.17;;;;;;;17.27;100.00;100249.66;5250087;28;20039;-69
2023/08/06 00:28:12;;;;;;;3.20;2.50;;;;;;;17.29;100.00;100252.09;5249993;28;20090;-69
2023/08/06 00:30:43;;;;;;;3.83;2.20;;;;;;;17.22;100.00;100251.19;5252921;28;20446;-69
2023/08/06 00:33:15;;;;;;;4.13;2.60;;;;;;;17.30;100.00;100252.91;5249619;28;20029;-69
2023/08/06 00:35:46;;;;;;;3.30;2.30;;;;;;;17.27;100.00;100249.66;5250270;28;20025;-69
2023/08/06 00:38:18;;;;;;;4.68;2.10;;;;;;;17.21;100.00;100250.38;5251225;28;20031;-69
2023/08/06 00:40:49;;;;;;;3.95;2.30;;;;;;;17.22;100.00;100243.25;5246547;28;20107;-69
2023/08/06 00:43:20;;;;;;;4.45;2.42;;;;;;;17.21;100.00;100239.78;5249513;28;20041;-69
2023/08/06 00:45:52;;;;;;;5.07;2.38;;;;;;;17.21;100.00;100250.38;5252322;28;20048;-69
2023/08/06 00:48:23;;;;;;;3.88;2.40;;;;;;;17.20;100.00;100245.28;5252122;28;20048;-69
2023/08/06 00:50:54;;;;;;;3.55;2.25;;;;;;;17.08;100.00;100242.28;5247032;28;20048;-69
2023/08/06 00:53:26;;;;;;;2.38;1.75;;;;;;;17.10;100.00;100237.63;5252018;28;20029;-69
2023/08/06 00:55:58;;;;;;;3.20;2.30;;;;;;;17.04;100.00;100251.59;5250383;28;20028;-69
2023/08/06 00:58:29;;;;;;;3.65;1.88;;;;;;;17.08;100.00;100238.81;5250107;28;20025;-69
2023/08/06 01:01:00;;;;;;;3.42;2.13;;;;;;;17.06;100.00;100236.38;5249013;28;20041;-69
2023/08/06 01:03:32;;;;;;;4.30;2.55;;;;;;;17.07;100.00;100237.19;5252289;28;20021;-69
2023/08/06 01:06:03;;;;;;;3.35;2.00;;;;;;;17.05;100.00;100237.41;5251106;28;20600;-70
2023/08/06 01:08:56;;;;;;;3.97;2.28;;;;;;;17.29;100.00;100230.91;5248903;28;20021;-69
2023/08/06 01:11:57;;;;;;;2.85;1.92;;;;;;;17.41;100.00;100233.88;5251609;28;20036;-69
2023/08/06 01:14:34;;;;;;;4.47;2.38;;;;;;;17.11;100.00;100233.97;5247835;28;20056;-69
2023/08/06 01:17:07;;;;;;;4.45;2.30;;;;;;;17.06;100.00;100236.38;5248666;28;20025;-69
2023/08/06 01:19:38;;;;;;;4.35;2.20;;;;;;;17.11;100.00;100231.34;5249391;28;20095;-69
2023/08/06 01:22:10;;;;;;;4.38;2.30;;;;;;;17.11;100.00;100233.97;5252300;28;20029;-69
2023/08/06 01:24:47;;;;;;;4.03;2.50;;;;;;;17.20;100.00;100234.69;5250859;28;20025;-69
2023/08/06 01:27:46;;;;;;;3.75;1.95;;;;;;;17.40;100.00;100229.59;5250974;28;20021;-69
2023/08/06 01:30:23;;;;;;;3.85;2.63;;;;;;;17.09;100.00;100241.31;5249750;28;20029;-69
2023/08/06 01:33:00;;;;;;;3.15;2.30;;;;;;;17.12;100.00;100234.78;5250362;28;20094;-69
2023/08/06 01:35:32;;;;;;;4.13;2.15;;;;;;;17.03;100.00;100234.09;5248938;28;20560;-69
2023/08/06 01:38:04;;;;;;;3.47;2.08;;;;;;;17.03;100.00;100231.44;5251364;28;20106;-69
2023/08/06 01:40:35;;;;;;;4.15;2.60;;;;;;;17.01;100.00;100231.66;5250569;28;20029;-69
2023/08/06 01:43:06;;;;;;;3.92;2.65;;;;;;;17.00;100.00;100237.94;5245824;28;20024;-69
2023/08/06 01:45:37;;;;;;;3.20;2.10;;;;;;;17.01;100.00;100230.84;5252263;28;20288;-69
2023/08/06 01:48:09;;;;;;;3.33;2.22;;;;;;;17.05;100.00;100223.31;5254792;28;20031;-69
2023/08/06 01:50:40;;;;;;;3.15;2.20;;;;;;;17.04;100.00;100225.16;5254214;28;20074;-69
2023/08/06 01:53:11;;;;;;;2.95;1.90;;;;;;;17.07;100.00;100219.47;5253666;28;20036;-69
2023/08/06 01:55:47;;;;;;;5.43;2.30;;;;;;;17.15;100.00;100224.66;5253685;28;20048;-69
2023/08/06 01:58:19;;;;;;;5.35;2.65;;;;;;;16.99;100.00;100224.91;5251205;28;20024;-69
2023/08/06 02:00:50;;;;;;;5.30;1.90;;;;;;;17.01;100.00;100218.41;5253183;28;20324;-69
2023/08/06 02:03:21;;;;;;;3.67;2.17;;;;;;;17.02;100.00;100225.34;5252866;28;20469;-69
2023/08/06 02:05:53;;;;;;;3.30;1.98;;;;;;;17.00;100.00;100229.19;5254898;28;20436;-69
2023/08/06 02:08:24;;;;;;;4.97;2.00;;;;;;;17.00;100.00;100235.28;5251373;28;20052;-69
2023/08/06 02:10:55;;;;;;;4.63;2.22;;;;;;;16.93;100.00;100231.78;5252716;28;20025;-69
2023/08/06 02:13:26;;;;;;;2.70;2.15;;;;;;;17.01;100.00;100242.25;5254239;28;20079;-69
2023/08/06 02:15:58;;;;;;;3.28;1.95;;;;;;;17.02;100.00;100233.28;5248760;28;20032;-69
2023/08/06 02:18:29;;;;;;;4.38;2.38;;;;;;;17.01;100.00;100236.94;5253675;28;20049;-69
2023/08/06 02:21:00;;;;;;;3.67;2.38;;;;;;;17.06;100.00;100236.38;5253813;28;20492;-69
2023/08/06 02:23:31;;;;;;;3.47;2.67;;;;;;;17.12;100.00;100232.16;5250255;28;20497;-69
2023/08/06 02:26:04;;;;;;;3.75;1.98;;;;;;;17.12;100.00;100232.16;5250776;28;20043;-69
2023/08/06 02:28:36;;;;;;;3.58;2.47;;;;;;;17.10;100.00;100227.06;5248452;28;20065;-69
2023/08/06 02:31:07;;;;;;;4.10;2.10;;;;;;;17.11;100.00;100233.16;5254164;28;20159;-69
2023/08/06 02:33:38;;;;;;;3.17;2.10;;;;;;;17.10;100.00;100231.53;5254999;28;20288;-69
2023/08/06 02:36:09;;;;;;;3.88;2.13;;;;;;;17.06;100.00;100232.91;5251676;28;20040;-69
2023/08/06 02:38:41;;;;;;;5.22;2.53;;;;;;;17.12;100.00;100225.06;5254461;28;20033;-69
2023/08/06 02:41:12;;;;;;;3.10;2.10;;;;;;;17.09;100.00;100230.72;5253643;28;20102;-69
2023/08/06 02:43:43;;;;;;;4.10;2.38;;;;;;;17.14;100.00;100232.78;5250815;28;20397;-69
2023/08/06 02:46:14;;;;;;;5.25;2.20;;;;;;;17.21;100.00;100231.84;5252282;28;20467;-69
2023/08/06 02:48:46;;;;;;;2.85;2.28;;;;;;;17.20;100.00;100227.56;5251856;28;20028;-69
2023/08/06 02:51:17;;;;;;;3.72;2.17;;;;;;;17.15;100.00;100224.66;5253511;28;20137;-69
2023/08/06 02:53:49;;;;;;;4.20;2.55;;;;;;;17.11;100.00;100220.75;5254060;28;20025;-69
2023/08/06 02:56:21;;;;;;;3.40;2.50;;;;;;;17.15;100.00;100222.00;5251006;28;20036;-69
2023/08/06 02:58:52;;;;;;;3.08;2.03;;;;;;;17.11;100.00;100210.16;5250333;28;20481;-69
2023/08/06 03:01:26;;;;;;;5.47;2.63;;;;;;;17.23;100.00;100221.88;5251116;28;20029;-69
2023/08/06 03:03:57;;;;;;;5.15;2.83;;;;;;;17.20;100.00;100218.81;5252073;28;20024;-69
2023/08/06 03:06:28;;;;;;;3.70;2.70;;;;;;;17.18;100.00;100219.00;5247937;28;20031;-69
2023/08/06 03:09:00;;;;;;;3.88;2.40;;;;;;;17.20;100.00;100226.75;5252867;28;20028;-68
2023/08/06 03:11:31;;;;;;;4.88;2.28;;;;;;;17.18;100.00;100219.00;5251255;28;20024;-69
2023/08/06 03:14:02;;;;;;;5.07;2.37;;;;;;;17.21;100.00;100221.25;5252632;28;20029;-69
2023/08/06 03:16:34;;;;;;;3.42;2.05;;;;;;;17.19;100.00;100217.97;5249697;28;20303;-68
2023/08/06 03:19:05;;;;;;;4.03;2.30;;;;;;;17.25;100.00;100227.81;5253776;28;20024;-69
2023/08/06 03:21:37;;;;;;;3.25;2.03;;;;;;;17.26;100.00;100223.34;5252136;28;20040;-69
2023/08/06 03:24:08;;;;;;;5.15;2.40;;;;;;;17.23;100.00;100226.34;5252485;28;20025;-69
2023/08/06 03:26:39;;;;;;;3.53;2.17;;;;;;;17.27;100.00;100227.63;5253546;28;20056;-69
2023/08/06 03:29:11;;;;;;;3.55;2.40;;;;;;;17.25;100.00;100227.81;5250735;28;20036;-69
2023/08/06 03:31:42;;;;;;;6.97;2.53;;;;;;;17.27;100.00;100225.81;5252353;28;20065;-69
2023/08/06 03:34:13;;;;;;;5.18;2.28;;;;;;;17.25;100.00;100230.47;5250874;28;20036;-68
2023/08/06 03:36:44;;;;;;;3.58;2.60;;;;;;;17.25;100.00;100233.13;5252949;28;20068;-69
2023/08/06 03:39:16;;;;;;;4.10;2.42;;;;;;;17.21;100.00;100223.09;5252745;28;20356;-69
2023/08/06 03:41:47;;;;;;;4.43;2.28;;;;;;;17.25;100.00;100230.47;5251061;28;20025;-69
2023/08/06 03:44:18;;;;;;;5.60;2.25;;;;;;;17.25;100.00;100230.47;5249546;28;20108;-70
2023/08/06 03:46:50;;;;;;;5.90;2.40;;;;;;;17.22;100.00;100232.66;5234330;28;20025;-70
2023/08/06 03:49:21;;;;;;;4.00;2.90;;;;;;;17.23;100.00;100229.00;5252205;28;20116;-70
2023/08/06 03:51:52;;;;;;;3.90;2.78;;;;;;;17.21;100.00;100233.69;5251396;28;20028;-70
2023/08/06 03:54:24;;;;;;;3.60;2.92;;;;;;;17.23;100.00;100232.47;5252829;28;20033;-70
2023/08/06 03:56:55;;;;;;;8.15;2.70;;;;;;;17.23;100.00;100234.31;5252009;28;20027;-69
2023/08/06 03:59:26;;;;;;;3.17;2.35;;;;;;;17.21;100.00;100231.03;5251245;28;20035;-69
2023/08/06 04:01:58;;;;;;;4.53;2.45;;;;;;;17.23;100.00;100243.06;5249494;28;20057;-69
2023/08/06 04:04:29;;;;;;;4.72;2.90;;;;;;;17.18;100.00;100245.47;5252512;28;20440;-69
2023/08/06 04:07:00;;;;;;;3.58;2.38;;;;;;;17.20;100.00;100235.53;5251910;28;20486;-69
2023/08/06 04:09:31;;;;;;;3.45;2.28;;;;;;;17.20;100.00;100237.34;5251481;28;20500;-69
2023/08/06 04:12:04;;;;;;;5.10;2.63;;;;;;;17.18;100.00;100245.47;5249656;28;20658;-69
2023/08/06 04:14:35;;;;;;;5.05;2.20;;;;;;;17.16;100.00;100236.06;5247189;28;20071;-69
2023/08/06 04:17:07;;;;;;;4.22;2.42;;;;;;;17.21;100.00;100245.09;5252127;28;20564;-69
2023/08/06 04:19:38;;;;;;;3.10;2.30;;;;;;;17.25;100.00;100243.69;5252291;28;20028;-68
2023/08/06 04:22:09;;;;;;;3.35;2.50;;;;;;;17.31;100.00;100246.59;5249106;28;20108;-68
2023/08/06 04:24:40;;;;;;;4.65;2.67;;;;;;;17.31;100.00;100246.59;5252256;28;20033;-69
2023/08/06 04:27:13;;;;;;;5.78;3.22;;;;;;;17.29;100.00;100248.63;5252033;28;20022;-69
2023/08/06 04:29:44;;;;;;;3.80;2.60;;;;;;;17.24;100.00;100260.59;5252042;28;20043;-69
2023/08/06 04:32:15;;;;;;;4.78;2.97;;;;;;;17.23;100.00;100258.13;5247996;28;20040;-69
2023/08/06 04:34:47;;;;;;;4.82;2.45;;;;;;;17.29;100.00;100253.91;5252402;28;20059;-69
2023/08/06 04:37:19;;;;;;;7.03;3.10;;;;;;;17.26;100.00;100255.94;5250595;28;20029;-69
2023/08/06 04:39:50;;;;;;;3.58;2.60;;;;;;;17.31;100.00;100257.19;5250099;28;20044;-69
2023/08/06 04:42:21;;;;;;;4.45;3.35;;;;;;;17.34;100.00;100259.47;5251609;28;20037;-68
2023/08/06 04:44:53;;;;;;;3.90;3.20;;;;;;;17.29;100.00;100272.47;5249229;28;20491;-68
2023/08/06 04:47:25;;;;;;;4.55;2.80;;;;;;;17.32;100.00;100264.13;5248567;28;20410;-69
2023/08/06 04:49:57;;;;;;;4.90;2.70;;;;;;;17.34;100.00;100262.09;5251448;28;21058;-69
2023/08/06 04:52:28;;;;;;;4.30;3.03;;;;;;;17.35;100.00;100271.69;5252682;28;20021;-68
2023/08/06 04:54:59;;;;;;;6.40;3.00;;;;;;;17.40;100.00;100271.97;5250144;28;20021;-69
2023/08/06 04:57:30;;;;;;;6.47;3.25;;;;;;;17.41;100.00;100269.09;5248966;28;20103;-68
2023/08/06 05:00:02;;;;;;;4.57;3.08;;;;;;;17.38;100.00;100269.47;5232589;28;20540;-69
2023/08/06 05:02:34;;;;;;;4.68;3.28;;;;;;;17.40;100.00;100266.66;5244418;28;20090;-68
2023/08/06 05:05:05;;;;;;;5.20;3.60;;;;;;;17.43;100.00;100271.59;5249597;28;20094;-68
2023/08/06 05:07:37;;;;;;;5.57;3.88;;;;;;;17.50;100.00;100273.28;5252051;28;20112;-69
2023/08/06 05:10:08;;;;;;;4.80;3.78;;;;;;;17.47;100.00;100276.31;5245893;28;20055;-68
2023/08/06 05:12:40;;;;;;;5.13;3.70;;;;;;;17.52;100.00;100287.16;5250622;28;20098;-69
2023/08/06 05:15:11;;;;;;;6.22;4.07;;;;;;;17.50;100.00;100281.25;5251595;28;21004;-69
2023/08/06 05:17:42;;;;;;;7.00;3.55;;;;;;;17.50;100.00;100283.88;5249452;28;20094;-69
2023/08/06 05:20:13;;;;;;;4.43;3.22;;;;;;;17.51;100.00;100288.16;5251955;28;20024;-69
2023/08/06 05:22:45;;;;;;;4.03;3.63;;;;;;;17.56;100.00;100284.94;5255615;28;20025;-69
2023/08/06 05:25:16;;;;;;;5.03;3.47;;;;;;;17.59;100.00;100294.34;5253317;28;20510;-69
2023/08/06 05:27:47;;;;;;;4.95;3.88;;;;;;;17.50;100.00;100288.34;5253901;28;20025;-69
2023/08/06 05:30:18;;;;;;;4.97;3.55;;;;;;;17.60;100.00;100296.78;5255655;28;20033;-69
2023/08/06 05:32:50;;;;;;;4.45;3.42;;;;;;;17.55;100.00;100287.78;5252774;28;20071;-69
2023/08/06 05:35:22;;;;;;;4.40;3.70;;;;;;;17.62;100.00;100296.63;5254595;28;20036;-69
2023/08/06 05:37:53;;;;;;;4.28;3.40;;;;;;;17.71;100.00;100308.72;5254395;28;20036;-69
2023/08/06 05:40:25;;;;;;;6.07;4.03;;;;;;;17.79;100.00;100310.44;5254557;28;20028;-69
2023/08/06 05:42:56;;;;;;;4.70;3.72;;;;;;;17.76;100.00;100314.28;5248428;28;20032;-69
2023/08/06 05:45:27;;;;;;;7.53;3.88;;;;;;;17.76;100.00;100319.59;5256073;28;20021;-69
2023/08/06 05:47:58;;;;;;;5.30;3.88;;;;;;;17.85;100.00;100326.41;5254335;28;20044;-69
2023/08/06 05:50:30;;;;;;;8.20;4.55;;;;;;;17.77;100.00;100333.66;5254181;28;20068;-69
2023/08/06 05:53:01;;;;;;;7.70;3.95;;;;;;;17.79;100.00;100336.94;5252000;28;20469;-69
2023/08/06 05:55:33;;;;;;;7.18;4.10;;;;;;;17.84;100.00;100337.19;5255478;28;20036;-69
2023/08/06 05:58:04;;;;;;;5.28;3.80;;;;;;;17.82;100.00;100336.56;5252414;28;20045;-69
2023/08/06 06:00:35;;;;;;;6.35;3.83;;;;;;;17.81;100.00;100332.28;5255021;28;20090;-69
2023/08/06 06:03:06;;;;;;;5.28;3.97;;;;;;;17.77;100.00;100349.56;5255207;28;20033;-69
2023/08/06 06:05:41;;;;;;;4.72;3.83;;;;;;;17.72;100.00;100337.66;5250548;28;20424;-69
2023/08/06 06:08:12;;;;;;;4.35;3.83;;;;;;;17.73;100.00;100343.81;5248827;28;20501;-69
2023/08/06 06:10:44;;;;;;;6.10;4.35;;;;;;;17.72;100.00;100361.50;5248753;28;20177;-69
2023/08/06 06:13:15;;;;;;;4.68;4.00;;;;;;;17.84;100.00;100361.03;5253215;28;20091;-69
2023/08/06 06:15:47;;;;;;;4.38;3.75;;;;;;;17.79;100.00;100368.75;5254277;28;20031;-69
2023/08/06 06:18:18;;;;;;;4.77;3.43;;;;;;;17.77;100.00;100371.59;5252609;28;20465;-69
2023/08/06 06:20:49;;;;;;;6.72;4.10;;;;;;;17.81;100.00;100378.16;5253843;28;20032;-69
2023/08/06 06:23:21;;;;;;;4.72;3.72;;;;;;;17.77;100.00;100381.34;5254385;28;20467;-69
2023/08/06 06:25:52;;;;;;;5.45;3.30;;;;;;;17.75;100.00;100378.91;5252406;28;20075;-69
2023/08/06 06:28:23;;;;;;;4.75;3.20;;;;;;;17.64;100.00;100382.81;5249928;28;20047;-69
2023/08/06 06:31:00;;;;;;;4.35;3.42;;;;;;;17.78;100.00;100388.31;5253470;28;20084;-69
2023/08/06 06:33:32;;;;;;;5.22;3.17;;;;;;;17.58;100.00;100393.34;5253782;28;20057;-69
2023/08/06 06:36:03;;;;;;;4.18;2.90;;;;;;;17.58;100.00;100393.34;5254303;28;20040;-69
2023/08/06 06:38:34;;;;;;;2.60;1.80;;;;;;;17.43;100.00;100406.66;5252781;28;20028;-68
2023/08/06 06:41:06;;;;;;;3.30;1.45;;;;;;;17.31;100.00;100406.28;5251502;28;20126;-68
2023/08/06 06:43:39;;;;;;;2.05;1.00;;;;;;;17.27;100.00;100419.09;5253951;28;20091;-69
2023/08/06 06:46:10;;;;;;;2.38;0.80;;;;;;;16.99;100.00;100420.72;5251010;28;20025;-69
2023/08/06 06:48:42;;;;;;;1.38;0.73;;;;;;;16.86;100.00;100436.41;5252308;28;20020;-70
2023/08/06 06:51:13;;;;;;;2.35;0.70;;;;;;;16.78;100.00;100424.06;5248838;28;20033;-69
2023/08/06 06:53:44;;;;;;;2.85;0.95;;;;;;;16.65;100.00;100432.59;5249012;28;20021;-69
2023/08/06 06:56:15;;;;;;;1.63;1.10;;;;;;;16.49;100.00;100436.22;5250127;28;20102;-69
2023/08/06 06:58:47;;;;;;;2.08;1.20;;;;;;;16.43;100.00;100446.69;5246752;28;20032;-69
2023/08/06 07:01:18;;;;;;;2.35;1.55;;;;;;;16.29;100.00;100440.38;5250570;28;20033;-69
2023/08/06 07:03:49;;;;;;;2.97;1.58;;;;;;;16.21;100.00;100441.25;5247166;28;20063;-69
2023/08/06 07:06:21;;;;;;;3.20;1.50;;;;;;;16.24;100.00;100446.16;5253881;28;20332;-68
2023/08/06 07:08:52;;;;;;;2.28;1.20;;;;;;;16.22;100.00;100448.19;5254559;28;20036;-69
2023/08/06 07:11:23;;;;;;;3.45;1.42;;;;;;;16.21;100.00;100449.19;5250524;28;20159;-69
2023/08/06 07:13:58;;;;;;;3.42;1.63;;;;;;;16.20;100.00;100458.09;5252535;28;20078;-69
2023/08/06 07:16:29;;;;;;;2.28;1.45;;;;;;;16.09;100.00;100461.13;5250779;28;20107;-68
2023/08/06 07:19:01;;;;;;;2.00;1.35;;;;;;;16.05;100.00;100476.53;5249670;28;20041;-68
2023/08/06 07:21:32;;;;;;;3.20;2.28;;;;;;;16.06;100.00;100469.41;5251481;28;20025;-69
2023/08/06 07:24:03;;;;;;;3.33;2.10;;;;;;;16.02;100.00;100481.31;5248668;28;20028;-69
2023/08/06 07:26:35;;;;;;;4.35;2.30;;;;;;;16.08;100.00;100485.94;5245319;28;20036;-68
2023/08/06 07:29:06;;;;;;;5.75;2.50;;;;;;;16.01;100.00;100492.91;5251918;28;20029;-69
2023/08/06 07:31:38;;;;;;;3.00;2.53;;;;;;;15.97;100.00;100487.13;5250569;28;20052;-69
2023/08/06 07:34:09;;;;;;;4.68;2.67;;;;;;;16.11;100.00;100492.69;5252649;28;20732;-69
2023/08/06 07:36:43;;;;;;;4.30;2.40;;;;;;;16.15;100.00;100504.56;5251118;28;20067;-69
2023/08/06 07:39:16;;;;;;;4.35;2.78;;;;;;;16.03;100.00;100490.91;5252982;28;20071;-69
2023/08/06 07:41:47;;;;;;;4.13;2.83;;;;;;;16.12;100.00;100500.44;5251718;28;20033;-69
2023/08/06 07:44:19;;;;;;;4.10;2.63;;;;;;;16.17;100.00;100499.91;5238864;28;20081;-69
2023/08/06 07:46:50;;;;;;;3.90;2.42;;;;;;;16.18;100.00;100512.97;5244168;28;20024;-69
2023/08/06 07:49:21;;;;;;;4.00;3.05;;;;;;;16.14;100.00;100516.94;5244052;28;20029;-69
2023/08/06 07:51:53;;;;;;;3.70;2.92;;;;;;;16.16;100.00;100514.13;5246521;28;20090;-69
2023/08/06 07:54:24;;;;;;;5.13;3.40;;;;;;;16.18;100.00;100507.69;5250343;28;20462;-69
2023/08/06 07:56:55;;;;;;;4.00;2.92;;;;;;;16.18;100.00;100520.88;5249017;28;20089;-69
2023/08/06 07:59:27;;;;;;;7.60;3.17;;;;;;;16.20;100.00;100524.16;5245017;28;20804;-69
2023/08/06 08:01:58;;;;;;;5.72;3.90;;;;;;;16.22;100.00;100522.19;5248395;28;20037;-69
2023/08/06 08:04:29;;;;;;;4.05;3.25;;;;;;;16.21;100.00;100517.91;5246083;28;20059;-70
2023/08/06 08:07:01;;;;;;;4.82;3.00;;;;;;;16.22;100.00;100518.72;5231466;28;20191;-69
2023/08/06 08:09:32;;;;;;;3.67;2.83;;;;;;;16.26;100.00;100518.19;5247015;28;20049;-70
2023/08/06 08:12:04;;;;;;;5.70;2.85;;;;;;;16.24;100.00;100517.53;5250732;28;20501;-70
2023/08/06 08:14:35;;;;;;;5.45;3.22;;;;;;;16.22;100.00;100511.63;5249678;28;20048;-70
2023/08/06 08:17:07;;;;;;;7.00;3.13;;;;;;;16.21;100.00;100514.41;5249299;28;20764;-69
2023/08/06 08:19:38;;;;;;;7.35;2.67;;;;;;;16.24;100.00;100524.63;5246622;28;20033;-70
2023/08/06 08:22:09;;;;;;;6.85;2.70;;;;;;;16.28;100.00;100524.09;5240266;28;20036;-70
2023/08/06 08:24:40;;;;;;;8.57;2.88;;;;;;;16.28;100.00;100525.94;5246408;28;20504;-70
2023/08/06 08:27:12;;;;;;;6.68;3.25;;;;;;;16.30;100.00;100537.16;5251459;28;20021;-70
2023/08/06 08:29:43;;;;;;;7.93;3.05;;;;;;;16.24;100.00;100536.03;5249195;28;20032;-70
2023/08/06 08:32:14;;;;;;;5.72;2.75;;;;;;;16.27;100.00;100530.41;5247288;28;20422;-70
2023/08/06 08:34:46;;;;;;;4.95;2.35;;;;;;;16.21;100.00;100535.56;5242439;28;20040;-70
2023/08/06 08:37:17;;;;;;;5.03;2.33;;;;;;;16.18;100.00;100547.31;5250559;28;20017;-70
2023/08/06 08:39:48;;;;;;;4.95;2.40;;;;;;;16.14;100.00;100547.81;5243064;28;20036;-70
2023/08/06 08:42:20;;;;;;;6.53;2.90;;;;;;;16.08;100.00;100553.81;5244441;28;20459;-69
2023/08/06 08:44:53;;;;;;;4.18;2.13;;;;;;;16.03;100.00;100549.06;5249423;28;20054;-70
2023/08/06 08:47:24;;;;;;;9.30;2.83;;;;;;;16.02;100.00;100540.31;5247108;28;20537;-70
2023/08/06 08:49:57;;;;;;;7.25;2.40;;;;;;;16.09;100.00;100561.56;5248586;28;20028;-70
2023/08/06 08:52:31;;;;;;;6.57;3.38;;;;;;;16.12;100.00;100558.56;5244836;28;20037;-69
2023/08/06 08:55:03;;;;;;;6.65;3.03;;;;;;;16.07;100.00;100563.56;5251181;28;20091;-69
2023/08/06 08:57:34;;;;;;;6.25;2.92;;;;;;;16.06;100.00;100564.53;5232789;28;20029;-69
2023/08/06 09:00:06;;;;;;;4.97;2.63;;;;;;;16.10;100.00;100567.66;5248558;28;20039;-69
2023/08/06 09:02:39;;;;;;;6.72;3.00;;;;;;;16.19;100.00;100570.09;5249541;28;20303;-69
2023/08/06 09:05:11;;;;;;;7.97;2.97;;;;;;;16.18;100.00;100579.03;5255316;28;20087;-69
2023/08/06 09:07:45;;;;;;;6.60;2.92;;;;;;;16.18;100.00;100575.56;5255122;28;20044;-69
2023/08/06 09:10:23;;;;;;;5.53;3.55;;;;;;;16.23;100.00;100589.09;5248963;28;20094;-70
2023/08/06 09:12:56;;;;;;;7.95;3.10;;;;;;;16.19;100.00;100588.59;5250622;28;20533;-70
2023/08/06 09:15:28;;;;;;;8.98;3.33;;;;;;;16.19;100.00;100585.16;5249230;28;20020;-70
2023/08/06 09:18:00;;;;;;;8.82;4.03;;;;;;;16.19;100.00;100596.53;5252617;28;20418;-69
2023/08/06 09:20:34;;;;;;;6.20;3.50;;;;;;;16.33;100.00;100596.78;5245403;28;20020;-69
2023/08/06 09:23:10;;;;;;;10.43;3.67;;;;;;;16.32;100.00;100603.91;5219660;28;20060;-69
2023/08/06 09:25:41;;;;;;;9.13;3.40;;;;;;;16.29;100.00;100607.72;5243719;28;20021;-69
2023/08/06 09:28:12;;;;;;;7.78;3.85;;;;;;;16.39;100.00;100611.97;5250074;28;20075;-70
2023/08/06 09:30:47;;;;;;;4.95;3.28;;;;;;;16.50;100.00;100617.69;5245954;28;20097;-70
2023/08/06 09:33:22;;;;;;;7.47;3.65;;;;;;;16.54;100.00;100618.97;5246573;28;20061;-69
2023/08/06 09:35:54;;;;;;;9.95;4.22;;;;;;;16.47;100.00;100623.31;5238960;28;20065;-69
2023/08/06 09:38:38;;;;;;;10.13;3.63;;;;;;;16.71;100.00;100626.84;5245854;28;20037;-69
2023/08/06 09:41:09;;;;;;;9.30;3.22;;;;;;;16.51;100.00;100629.06;5245509;28;20563;-69
2023/08/06 09:43:42;;;;;;;7.18;3.75;;;;;;;16.52;100.00;100631.56;5250448;22;20140;-75
2023/08/06 09:46:14;;;;;;;7.22;3.60;;;;;;;16.54;100.00;100632.19;5232317;28;20037;-74
2023/08/06 09:48:50;;;;;;;6.57;3.45;;;;;;;16.72;100.00;100636.41;5234383;28;20143;-76
2023/08/06 09:51:21;;;;;;;6.82;3.38;;;;;;;16.53;100.00;100635.03;5241001;28;20840;-75
2023/08/06 09:53:53;;;;;;;6.85;4.03;;;;;;;16.57;100.00;100636.31;5252139;28;20028;-76
2023/08/06 09:56:26;;;;;;;7.93;3.65;;;;;;;16.57;100.00;100638.97;5257630;28;20028;-75
2023/08/06 09:58:57;;;;;;;;;;;;;;;17.27;100.00;100644.13;5254213;23;20054;-69
2023/08/06 10:01:29;;;;;;;9.40;2.97;;;;;;;16.72;100.00;100650.44;5226642;28;20354;-69
2023/08/06 10:04:04;;;;;;;5.80;3.45;;;;;;;16.82;100.00;100644.13;5239330;28;20594;-69
2023/08/06 10:06:36;;;;;;;4.72;3.03;;;;;;;16.65;100.00;100649.50;5261458;28;20040;-69
2023/08/06 10:09:09;;;;;;;7.03;3.15;;;;;;;16.71;100.00;100645.34;5260089;28;20021;-70
2023/08/06 10:11:42;;;;;;;4.20;2.72;;;;;;;16.79;100.00;100650.63;5261139;28;20024;-69
2023/08/06 10:14:20;;;;;;;7.90;2.90;;;;;;;16.74;100.00;100656.44;5260787;28;20060;-69
2023/08/06 10:16:51;;;;;;;4.75;2.45;;;;;;;16.61;100.00;100650.84;5257902;28;20129;-69
2023/08/06 10:19:24;;;;;;;7.50;2.58;;;;;;;16.60;100.00;100654.50;5264388;28;20025;-71
2023/08/06 10:22:11;;;;;;;3.83;2.72;;;;;;;16.81;100.00;100658.38;5258398;28;20031;-70
2023/08/06 10:25:04;;;;;;;6.72;3.17;;;;;;;16.90;100.00;100663.44;5262980;28;20107;-70
2023/08/06 10:27:40;;;;;;;5.43;2.97;;;;;;;16.75;100.00;100657.25;5260758;28;21240;-69
2023/08/06 10:30:31;;;;;;;6.13;2.72;;;;;;;16.94;100.00;100662.09;5263774;28;20037;-70
2023/08/06 10:33:04;;;;;;;6.93;2.72;;;;;;;16.75;100.00;100659.91;5256597;28;20029;-70
2023/08/06 10:35:44;;;;;;;7.03;3.33;;;;;;;16.84;100.00;100663.31;5261855;28;20039;-70
2023/08/06 10:38:21;;;;;;;6.18;3.25;;;;;;;16.91;100.00;100667.72;5261433;28;20115;-69
2023/08/06 10:40:52;;;;;;;6.32;2.95;;;;;;;16.94;100.00;100661.25;5261599;28;20357;-69
2023/08/06 10:43:32;;;;;;;8.47;3.67;;;;;;;17.12;100.00;100667.09;5263978;28;20043;-69
2023/08/06 10:46:20;;;;;;;7.72;3.10;;;;;;;17.05;100.00;100668.78;5253520;28;20094;-70
2023/08/06 10:48:52;;;;;;;6.32;3.35;;;;;;;17.08;100.00;100668.41;5252244;28;20028;-69
2023/08/06 10:51:23;;;;;;;9.55;3.38;;;;;;;17.11;100.00;100665.44;5240720;28;20032;-70
2023/08/06 10:53:55;;;;;;;7.00;3.58;;;;;;;17.16;100.00;100678.97;5258499;28;20460;-69
2023/08/06 10:56:27;;;;;;;10.73;4.13;;;;;;;17.18;100.00;100679.59;5253157;28;20051;-69
2023/08/06 10:58:58;;;;;;;8.90;3.60;;;;;;;17.24;100.00;100680.72;5257153;28;20033;-69
2023/08/06 11:01:30;;;;;;;7.00;3.63;;;;;;;17.39;100.00;100680.78;5254986;28;20074;-69
2023/08/06 11:04:04;;;;;;;7.60;3.83;;;;;;;17.34;100.00;100683.13;5237465;28;20112;-69
2023/08/06 11:06:35;;;;;;;5.68;3.40;;;;;;;17.25;100.00;100683.19;5255671;28;20060;-69
2023/08/06 11:09:07;;;;;;;4.90;3.03;;;;;;;17.30;100.00;100687.94;5251216;28;20123;-69
2023/08/06 11:11:38;;;;;;;7.25;3.90;;;;;;;17.30;100.00;100687.94;5257257;28;20028;-69
2023/08/06 11:14:16;;;;;;;4.65;3.00;;;;;;;17.46;100.00;100687.84;5244235;28;20127;-69
2023/08/06 11:16:47;;;;;;;6.35;3.35;;;;;;;17.33;100.00;100679.66;5261317;28;20389;-69
2023/08/06 11:19:19;;;;;;;7.57;3.22;;;;;;;17.42;100.00;100686.50;5256874;28;20016;-69
2023/08/06 11:21:51;;;;;;;4.68;3.08;;;;;;;17.36;100.00;100681.94;5255638;28;20024;-69
2023/08/06 11:24:25;;;;;;;6.68;3.22;;;;;;;17.46;100.00;100693.13;5252699;28;20038;-68
2023/08/06 11:26:57;;;;;;;5.93;3.30;;;;;;;17.42;100.00;100689.16;5256890;28;20032;-69
2023/08/06 11:29:28;;;;;;;8.65;3.75;;;;;;;17.35;100.00;100684.75;5258947;28;20453;-69
2023/08/06 11:32:04;;;;;;;7.20;3.70;;;;;;;17.54;100.00;100683.44;5256789;28;20481;-69
2023/08/06 11:34:37;;;;;;;5.07;3.53;;;;;;;17.45;100.00;100690.66;5262090;28;20079;-69
2023/08/06 11:37:08;;;;;;;8.10;4.03;;;;;;;17.51;100.00;100684.63;5256737;28;20059;-69
2023/08/06 11:39:46;;;;;;;7.22;3.40;;;;;;;17.67;100.00;100687.13;5261815;28;20029;-69